Time;durP1;ratioP1;P1;durP2;ratioP2;P2;SDS_P1;SDS_P2;PMS_P1;PMS_P2;Temp;Humidity;BMP_temperature;BMP_pressure;BME280_temperature;BME280_humidity;BME280_pressure;Samples;Min_cycle;Max_cycle;Signal;HPM_P1;HPM_P2
2023/01/28 00:01:04;;;;;;;13.88;10.90;;;;;;;2.84;100.00;102852.00;5232299;28;20036;-79
2023/01/28 00:04:02;;;;;;;11.38;10.07;;;;;;;2.86;100.00;102855.47;5202864;28;20155;-80
2023/01/28 00:11:03;;;;;;;12.07;10.63;;;;;;;2.81;100.00;102855.56;5187890;28;20098;-78
2023/01/28 00:14:43;;;;;;;;;;;;;;;;;;;;;
2023/01/28 00:18:28;;;;;;;;;;;;;;;;;;;;;
2023/01/28 00:21:59;;;;;;;12.88;10.10;;;;;;;2.76;100.00;102865.38;5187806;28;40393;-80
2023/01/28 00:24:33;;;;;;;11.35;9.25;;;;;;;2.81;100.00;102865.25;5172129;28;20062;-81
2023/01/28 00:31:01;;;;;;;12.57;9.88;;;;;;;2.76;100.00;102870.66;5192776;28;20054;-80
2023/01/28 00:34:07;;;;;;;13.77;10.13;;;;;;;2.77;100.00;102863.59;5180341;28;20031;-81
2023/01/28 00:37:31;;;;;;;14.15;11.27;;;;;;;2.69;100.00;102869.09;5191177;28;20031;-80
2023/01/28 00:44:08;;;;;;;12.32;9.93;;;;;;;2.72;100.00;102882.19;5237439;28;20036;-80
2023/01/28 00:47:14;;;;;;;14.60;11.00;;;;;;;2.55;100.00;102868.59;5221470;28;20113;-79
2023/01/28 00:50:03;;;;;;;13.68;11.05;;;;;;;2.58;100.00;102881.72;5229607;28;20526;-80
2023/01/28 00:53:35;;;;;;;;;;;;;;;;;;;;;
2023/01/28 01:00:24;;;;;;;12.98;9.95;;;;;;;2.43;100.00;102846.94;5229803;28;20062;-81
2023/01/28 01:07:12;;;;;;;12.23;9.93;;;;;;;2.52;100.00;102868.69;5171228;28;20133;-81
2023/01/28 01:10:35;;;;;;;12.05;9.40;;;;;;;2.63;100.00;102891.22;5193334;28;20125;-81
2023/01/28 01:13:34;;;;;;;13.80;10.57;;;;;;;2.46;100.00;102872.34;5177836;28;20038;-81
2023/01/28 01:16:37;;;;;;;;;;;;;;;;;;;;;
2023/01/28 01:20:12;;;;;;;12.18;10.00;;;;;;;2.64;100.00;102884.16;5215514;28;42720;-80
2023/01/28 01:30:46;;;;;;;13.55;10.10;;;;;;;2.41;100.00;102863.69;5211865;28;20046;-81
2023/01/28 01:34:08;;;;;;;12.55;9.63;;;;;;;2.53;100.00;102871.28;5208701;28;20038;-81
2023/01/28 01:37:23;;;;;;;11.88;9.88;;;;;;;2.56;100.00;102876.47;5215063;28;20555;-81
2023/01/28 01:40:43;;;;;;;;;;;;;;;;;;;;;
2023/01/28 01:43:55;;;;;;;13.32;10.82;;;;;;;2.50;100.00;102879.25;5219647;28;42521;-80
2023/01/28 01:47:04;;;;;;;14.63;11.52;;;;;;;2.27;100.00;102840.34;5219232;28;20030;-81
2023/01/28 01:49:48;;;;;;;13.98;10.73;;;;;;;2.33;100.00;102871.81;5212805;28;20625;-80
2023/01/28 01:56:44;;;;;;;13.23;11.15;;;;;;;2.27;100.00;102853.53;5208945;28;20717;-81
2023/01/28 02:00:04;;;;;;;;;;;;;;;;;;;;;
2023/01/28 02:03:46;;;;;;;;;;;;;;;;;;;;;
2023/01/28 02:07:17;;;;;;;15.07;11.23;;;;;;;2.26;100.00;102864.94;5213731;28;41307;-80
2023/01/28 02:10:32;;;;;;;;;;;;;;;;;;;;;
2023/01/28 02:13:18;;;;;;;13.55;10.52;;;;;;;2.35;100.00;102888.44;5176286;28;42456;-80
2023/01/28 02:20:28;;;;;;;14.60;10.90;;;;;;;2.32;100.00;102885.00;5153014;28;20100;-81
2023/01/28 02:23:41;;;;;;;14.18;11.05;;;;;;;2.39;100.00;102894.50;5145329;28;20685;-80
2023/01/28 02:27:00;;;;;;;14.50;10.40;;;;;;;2.17;100.00;102858.13;5133413;28;20040;-81
2023/01/28 02:30:04;;;;;;;;;;;;;;;2.43;100.00;102886.44;5133168;28;20103;-80
2023/01/28 02:33:24;;;;;;;14.20;10.95;;;;;;;2.37;100.00;102885.75;5131736;28;20529;-81
2023/01/28 02:36:52;;;;;;;;;;;;;;;;;;;;;
2023/01/28 02:43:28;;;;;;;12.02;9.63;;;;;;;2.22;100.00;102868.56;5192408;28;20538;-80
2023/01/28 02:49:53;;;;;;;13.95;10.30;;;;;;;2.33;100.00;102884.09;5224929;28;20039;-79
2023/01/28 02:56:30;;;;;;;15.38;10.85;;;;;;;2.27;100.00;102890.38;5219872;28;20022;-81
2023/01/28 02:59:32;;;;;;;14.68;11.23;;;;;;;2.25;100.00;102903.59;5227636;28;20077;-81
2023/01/28 03:06:42;;;;;;;;;;;;;;;;;;;;;
2023/01/28 03:09:33;;;;;;;13.88;10.82;;;;;;;1.98;100.00;102870.03;5152976;28;40728;-81
2023/01/28 03:38:57;;;;;;;;;;;;;;;;;;;;;
2023/01/28 03:42:11;;;;;;;12.93;9.50;;;;;;;2.07;100.00;102904.06;5205413;28;40953;-81
2023/01/28 03:45:29;;;;;;;12.38;9.65;;;;;;;1.85;100.00;102874.75;5216748;28;20033;-81
2023/01/28 03:48:59;;;;;;;;;;;;;;;;;;;;;
2023/01/28 03:52:11;;;;;;;10.40;8.77;;;;;;;1.90;100.00;102883.38;5217449;28;42026;-80
2023/01/28 03:55:26;;;;;;;;;;;;;;;;;;;;;
2023/01/28 04:01:54;;;;;;;;;;;;;;;;;;;;;
2023/01/28 04:08:57;;;;;;;;;;;;;;;;;;;;;
2023/01/28 04:12:11;;;;;;;;;;;;;;;;;;;;;
2023/01/28 04:14:48;;;;;;;12.25;10.05;;;;;;;1.72;100.00;102896.97;5112043;29;41065;-81
2023/01/28 04:17:42;;;;;;;;;;;;;;;2.04;100.00;102930.44;5113909;29;20515;-81
2023/01/28 04:20:56;;;;;;;13.55;10.63;;;;;;;1.97;100.00;102931.50;5116683;29;19923;-81
2023/01/28 04:24:23;;;;;;;14.25;10.60;;;;;;;1.93;100.00;102932.44;5128272;28;20048;-81
2023/01/28 04:31:00;;;;;;;14.45;11.80;;;;;;;1.91;100.00;102923.72;5139944;28;20051;-81
2023/01/28 04:33:55;;;;;;;15.95;11.20;;;;;;;1.83;100.00;102918.66;5210111;28;20018;-81
2023/01/28 04:36:46;;;;;;;14.65;11.20;;;;;;;1.80;100.00;102921.34;5217763;28;20136;-81
2023/01/28 04:40:10;;;;;;;;;;;;;;;;;;;;;
2023/01/28 04:43:22;;;;;;;14.10;11.15;;;;;;;1.86;100.00;102918.59;5178335;28;42258;-81
2023/01/28 04:46:11;;;;;;;15.13;11.38;;;;;;;1.73;100.00;102910.09;5209316;28;20042;-81
2023/01/28 04:49:30;;;;;;;14.38;11.15;;;;;;;1.83;100.00;102923.91;5211936;28;20053;-81
2023/01/28 04:53:09;;;;;;;;;;;;;;;;;;;;;
2023/01/28 04:56:04;;;;;;;15.25;11.15;;;;;;;1.81;100.00;102931.84;5227370;28;40395;-80
2023/01/28 04:58:44;;;;;;;15.35;11.60;;;;;;;1.58;100.00;102899.91;5226630;28;20027;-81
2023/01/28 05:01:44;;;;;;;14.73;11.15;;;;;;;1.71;100.00;102922.41;5220682;28;20040;-80
2023/01/28 05:05:07;;;;;;;;;;;;;;;;;;;;;
2023/01/28 05:08:04;;;;;;;16.10;12.40;;;;;;;1.69;100.00;102922.44;5219419;28;41253;-81
2023/01/28 05:11:05;;;;;;;16.85;12.23;;;;;;;1.69;100.00;102932.97;5205897;28;20499;-81
2023/01/28 05:21:12;;;;;;;15.75;11.07;;;;;;;1.81;100.00;102944.13;5166943;28;20127;-80
2023/01/28 05:24:23;;;;;;;15.35;11.77;;;;;;;1.78;100.00;102942.44;5165910;28;20152;-80
2023/01/28 05:27:26;;;;;;;16.48;12.07;;;;;;;1.73;100.00;102935.53;5147508;28;20412;-79
2023/01/28 05:30:05;;;;;;;15.52;11.40;;;;;;;1.68;100.00;102933.00;5154424;28;20462;-78
2023/01/28 05:33:21;;;;;;;;;;;;;;;;;;;;;
2023/01/28 05:36:47;;;;;;;15.10;11.55;;;;;;;1.69;100.00;102929.47;5119219;28;41409;-81
2023/01/28 05:40:24;;;;;;;15.13;10.55;;;;;;;1.57;100.00;102906.06;5150742;28;20039;-81
2023/01/28 05:43:26;;;;;;;15.25;11.38;;;;;;;1.58;100.00;102911.31;5139591;28;20437;-81
2023/01/28 05:46:44;;;;;;;14.32;11.13;;;;;;;1.49;100.00;102915.00;5130021;28;20040;-81
2023/01/28 05:49:58;;;;;;;16.08;10.95;;;;;;;1.58;100.00;102920.94;5142342;28;20404;-81
2023/01/28 05:53:03;;;;;;;15.02;10.98;;;;;;;1.53;100.00;102923.69;5147363;28;20443;-82
2023/01/28 05:56:01;;;;;;;14.05;10.27;;;;;;;1.56;100.00;102928.00;5149152;28;20515;-80
2023/01/28 05:59:11;;;;;;;10.95;9.20;;;;;;;1.54;100.00;102935.06;5183842;28;20451;-82
2023/01/28 06:02:18;;;;;;;11.93;9.07;;;;;;;1.39;100.00;102918.72;5200569;28;20479;-82
2023/01/28 06:05:22;;;;;;;11.57;8.95;;;;;;;1.38;100.00;102922.25;5205626;28;20455;-80
2023/01/28 06:08:15;;;;;;;12.13;9.23;;;;;;;1.34;100.00;102920.56;5211321;28;20427;-81
2023/01/28 06:11:47;;;;;;;11.93;9.40;;;;;;;1.39;100.00;102917.88;5205002;28;20110;-81
2023/01/28 06:14:38;;;;;;;;;;;;;;;;;;;;;
2023/01/28 06:17:28;;;;;;;13.15;9.82;;;;;;;1.28;100.00;102907.53;5227282;28;40342;-81
2023/01/28 06:23:58;;;;;;;9.77;7.50;;;;;;;1.40;100.00;102911.69;5226940;28;20061;-81
2023/01/28 06:27:13;;;;;;;10.95;8.77;;;;;;;1.36;100.00;102920.56;5219452;28;20413;-81
2023/01/28 06:30:21;;;;;;;11.43;9.48;;;;;;;1.45;100.00;102939.63;5228201;28;20065;-81
2023/01/28 06:33:30;;;;;;;;;;;;;;;;;;;;;
2023/01/28 06:47:15;;;;;;;11.25;7.90;;;;;;;1.45;100.00;102936.97;5216034;28;20038;-81
2023/01/28 06:50:21;;;;;;;10.68;8.05;;;;;;;1.50;100.00;102953.53;5217501;28;20414;-81
2023/01/28 07:00:15;;;;;;;12.10;9.43;;;;;;;1.48;100.00;102951.84;5095009;29;20049;-81
2023/01/28 07:10:59;;;;;;;14.18;9.93;;;;;;;1.30;100.00;102943.44;5121609;28;20043;-81
2023/01/28 07:16:42;;;;;;;13.43;10.43;;;;;;;1.38;100.00;102963.44;5131432;28;20040;-81
2023/01/28 07:26:32;;;;;;;14.70;11.10;;;;;;;1.13;100.00;102949.03;5205089;28;20391;-81
2023/01/28 07:29:32;;;;;;;15.40;11.77;;;;;;;1.26;100.00;102975.97;5152992;28;20051;-81
2023/01/28 07:32:32;;;;;;;;;;;;;;;;;;;;;
2023/01/28 07:35:35;;;;;;;13.25;10.10;;;;;;;1.34;100.00;103002.09;5207155;28;41418;-81
2023/01/28 07:38:36;;;;;;;14.02;10.60;;;;;;;1.29;100.00;102994.28;5151545;28;20490;-81
2023/01/28 07:41:28;;;;;;;13.68;10.35;;;;;;;1.28;100.00;102999.56;5201568;28;20042;-80
2023/01/28 07:47:58;;;;;;;14.30;10.50;;;;;;;1.40;100.00;102994.06;5211298;28;20039;-82
2023/01/28 07:51:12;;;;;;;14.65;11.02;;;;;;;1.35;100.00;102995.06;5165930;28;20515;-82
2023/01/28 07:54:12;;;;;;;13.85;10.18;;;;;;;1.32;100.00;102983.72;5211381;28;20041;-82
2023/01/28 07:56:58;;;;;;;14.20;10.55;;;;;;;1.12;100.00;102973.59;5203209;28;20410;-82
2023/01/28 08:03:06;;;;;;;14.32;10.65;;;;;;;1.37;100.00;103004.69;5212284;28;20034;-80
2023/01/28 08:06:29;;;;;;;;;;;;;;;;;;;;;
2023/01/28 08:09:29;;;;;;;;;;;;;;;;;;;;;
2023/01/28 08:13:01;;;;;;;14.30;10.88;;;;;;;1.45;100.00;103002.75;5233863;28;42515;-81
2023/01/28 08:15:54;;;;;;;13.98;10.45;;;;;;;1.49;100.00;103003.53;5222270;28;20027;-80
2023/01/28 08:18:58;;;;;;;13.27;10.18;;;;;;;1.57;100.00;103027.09;5201470;28;20074;-80
2023/01/28 08:25:42;;;;;;;15.27;10.75;;;;;;;1.55;100.00;103026.25;5111955;28;20500;-81
2023/01/28 08:28:54;;;;;;;13.10;9.93;;;;;;;1.60;100.00;103043.66;5173675;28;20043;-81
2023/01/28 08:31:53;;;;;;;12.60;9.73;;;;;;;1.70;100.00;103034.69;5171865;28;20500;-81
2023/01/28 08:38:04;;;;;;;13.63;10.93;;;;;;;1.81;100.00;103049.41;5147959;28;20591;-81
2023/01/28 08:41:08;;;;;;;14.43;10.75;;;;;;;1.86;100.00;103037.03;5175735;28;20038;-81
2023/01/28 08:46:58;;;;;;;16.33;11.18;;;;;;;1.99;100.00;103056.03;5197946;28;20118;-80
2023/01/28 08:49:43;;;;;;;14.15;10.88;;;;;;;2.00;100.00;103040.22;5181185;28;20058;-80
2023/01/28 08:53:00;;;;;;;15.85;11.02;;;;;;;1.98;100.00;103014.81;5187999;28;20043;-81
2023/01/28 08:56:00;;;;;;;15.20;11.90;;;;;;;2.16;100.00;103055.69;5198996;28;20046;-80
2023/01/28 08:59:00;;;;;;;13.30;10.30;;;;;;;2.17;100.00;103045.09;5176836;28;20122;-81
2023/01/28 09:02:28;;;;;;;13.50;9.95;;;;;;;2.13;100.00;103034.69;5202420;28;20127;-81
2023/01/28 09:05:58;;;;;;;;;;;;;;;;;;;;;
2023/01/28 09:09:35;;;;;;;14.45;10.75;;;;;;;2.19;100.00;103056.47;5188977;28;40495;-80
2023/01/28 09:12:25;;;;;;;13.95;10.55;;;;;;;2.33;100.00;103061.44;5185344;28;20069;-80
2023/01/28 09:15:23;;;;;;;;;;;;;;;;;;;;;
2023/01/28 09:18:11;;;;;;;14.15;10.80;;;;;;;2.38;100.00;103063.94;5187359;28;39865;-81
2023/01/28 09:21:04;;;;;;;;;;;;;;;2.58;100.00;103079.31;5201270;28;20407;-80
2023/01/28 09:24:22;;;;;;;14.30;10.57;;;;;;;2.27;100.00;103058.94;5230871;28;20371;-80
2023/01/28 09:27:16;;;;;;;13.48;10.77;;;;;;;2.27;100.00;103062.41;5213908;28;20042;-80
2023/01/28 09:30:29;;;;;;;14.13;10.60;;;;;;;2.19;100.00;103052.97;5213750;28;20674;-81
2023/01/28 09:33:55;;;;;;;;;;;;;;;;;;;;;
2023/01/28 09:48:13;;;;;;;17.40;11.50;;;;;;;2.34;100.00;103104.44;5231208;28;20048;-80
2023/01/28 09:54:54;;;;;;;12.80;11.07;;;;;;;2.54;100.00;103089.06;5212722;28;20035;-80
2023/01/28 10:08:42;;;;;;;13.93;11.23;;;;;;;2.56;100.00;103107.44;5214325;28;19914;-80
2023/01/28 10:11:53;;;;;;;15.00;11.77;;;;;;;2.49;100.00;103124.28;5220797;28;20525;-80
2023/01/28 10:15:18;;;;;;;14.73;11.30;;;;;;;2.49;100.00;103111.13;5205377;28;20038;-81
2023/01/28 10:19:01;;;;;;;;;;;;;;;;;;;;;
2023/01/28 10:29:35;;;;;;;12.88;10.20;;;;;;;2.48;100.00;103091.81;5108204;29;20167;-81
2023/01/28 10:32:33;;;;;;;12.05;10.40;;;;;;;2.55;100.00;103124.16;5049902;29;20126;-81
2023/01/28 10:35:30;;;;;;;;;;;;;;;;;;;;;
2023/01/28 10:38:41;;;;;;;12.20;10.65;;;;;;;2.61;100.00;103110.84;5072432;29;39632;-80
2023/01/28 10:41:25;;;;;;;11.07;9.45;;;;;;;2.45;100.00;103083.97;5079345;28;20132;-80
2023/01/28 10:45:02;;;;;;;10.85;9.48;;;;;;;2.65;100.00;103117.78;5183723;28;20085;-78
2023/01/28 10:48:19;;;;;;;10.65;9.15;;;;;;;2.69;100.00;103113.31;5177911;28;20126;-80
2023/01/28 10:55:12;;;;;;;13.85;9.82;;;;;;;2.75;100.00;103090.31;5127429;28;20077;-80
2023/01/28 10:58:29;;;;;;;;;;;;;;;;;;;;;
2023/01/28 11:01:31;;;;;;;11.40;9.10;;;;;;;2.94;100.00;103101.25;5191633;28;42567;-80
2023/01/28 11:12:17;;;;;;;;;;;;;;;;;;;;;
2023/01/28 11:23:08;;;;;;;11.88;9.55;;;;;;;2.89;100.00;103094.38;5068935;29;20077;-81
2023/01/28 11:26:18;;;;;;;13.68;9.77;;;;;;;2.92;100.00;103100.44;5126849;28;20027;-81
2023/01/28 11:29:11;;;;;;;;;;;;;;;;;;;;;
2023/01/28 11:32:11;;;;;;;12.05;9.93;;;;;;;2.91;100.00;103082.03;5161164;28;41144;-80
2023/01/28 11:35:27;;;;;;;11.25;9.27;;;;;;;3.16;100.00;103069.97;5165926;28;20134;-80
2023/01/28 11:38:51;;;;;;;11.70;9.82;;;;;;;3.48;100.00;103065.59;5177798;28;20039;-80
2023/01/28 11:42:19;;;;;;;11.07;8.95;;;;;;;3.68;100.00;103062.41;5179793;28;20078;-80
2023/01/28 11:45:49;;;;;;;12.20;9.05;;;;;;;3.65;100.00;103044.03;5156198;28;20044;-81
2023/01/28 11:52:11;;;;;;;12.02;9.52;;;;;;;3.81;100.00;103043.59;5221767;28;20499;-80
2023/01/28 11:55:29;;;;;;;11.80;9.90;;;;;;;3.98;100.00;103028.97;5211306;28;20129;-81
2023/01/28 12:06:19;;;;;;;13.98;10.30;;;;;;;5.07;100.00;102979.59;5071690;29;20028;-81
2023/01/28 12:09:38;;;;;;;;;;;;;;;;;;;;;
2023/01/28 12:12:43;;;;;;;11.65;9.82;;;;;;;6.49;100.00;102941.53;5119723;29;40245;-81
2023/01/28 12:16:13;;;;;;;12.02;10.40;;;;;;;7.43;100.00;102971.91;5110161;29;20045;-81
2023/01/28 12:30:07;;;;;;;;;;;;;;;;;;;;;
2023/01/28 12:34:33;;;;;;;9.30;8.40;;;;;;;14.87;100.00;102983.63;5142287;28;40996;-82
2023/01/28 12:37:26;;;;;;;;;;;;;;;;;;;;;
2023/01/28 12:40:57;;;;;;;9.55;8.52;;;;;;;11.70;100.00;103013.72;5220658;28;20085;-82
2023/01/28 12:43:44;;;;;;;8.15;7.35;;;;;;;10.01;100.00;102993.44;5203322;28;20038;-81
2023/01/28 12:46:36;;;;;;;8.63;7.82;;;;;;;9.21;100.00;103011.09;5202593;28;20041;-81
2023/01/28 12:49:37;;;;;;;9.70;8.70;;;;;;;8.56;100.00;103010.03;5225633;28;20039;-81
2023/01/28 12:52:17;;;;;;;9.65;8.57;;;;;;;8.28;100.00;103021.97;5213167;28;20034;-81
2023/01/28 12:54:57;;;;;;;10.02;9.02;;;;;;;9.61;100.00;103022.28;5214303;28;20026;-81
2023/01/28 12:57:31;;;;;;;9.85;8.95;;;;;;;11.94;100.00;103021.16;5217336;28;20407;-81
2023/01/28 13:00:27;;;;;;;9.50;8.55;;;;;;;12.66;100.00;103009.28;5196669;28;20045;-82
2023/01/28 13:03:10;;;;;;;8.70;7.80;;;;;;;11.62;100.00;103022.22;5199737;28;20378;-80
2023/01/28 13:05:50;;;;;;;9.30;8.40;;;;;;;10.24;100.00;103009.97;5209910;28;20042;-81
2023/01/28 13:08:27;;;;;;;8.63;7.78;;;;;;;9.20;100.00;103005.84;5215837;28;20101;-81
2023/01/28 13:11:01;;;;;;;9.20;8.30;;;;;;;8.82;100.00;103004.25;5200847;28;20109;-81
2023/01/28 13:13:38;;;;;;;10.75;8.57;;;;;;;8.24;100.00;103010.63;5243257;28;20022;-81
2023/01/28 13:16:11;;;;;;;9.27;8.38;;;;;;;7.79;100.00;103022.50;5237158;28;20038;-80
2023/01/28 13:18:45;;;;;;;8.68;7.85;;;;;;;6.98;100.00;103003.94;5237983;28;20049;-81
2023/01/28 13:21:23;;;;;;;8.55;7.75;;;;;;;6.98;100.00;103006.59;5222941;28;20630;-79
2023/01/28 13:24:00;;;;;;;9.75;8.43;;;;;;;6.63;100.00;102995.69;5229453;28;20030;-81
2023/01/28 13:26:57;;;;;;;10.05;8.93;;;;;;;6.66;100.00;103000.00;5224225;28;20034;-81
2023/01/28 13:29:33;;;;;;;10.60;8.70;;;;;;;6.40;100.00;102995.81;5234506;28;20094;-82
2023/01/28 13:32:27;;;;;;;9.18;7.90;;;;;;;6.38;100.00;102992.31;5233260;28;20049;-82
2023/01/28 13:35:04;;;;;;;8.15;6.90;;;;;;;6.20;100.00;102984.19;5233147;28;20406;-82
2023/01/28 13:37:44;;;;;;;8.48;7.30;;;;;;;7.26;100.00;102991.25;5234820;28;20411;-81
2023/01/28 13:40:26;;;;;;;7.70;6.90;;;;;;;9.31;100.00;102981.31;5234222;28;20034;-81
2023/01/28 13:43:32;;;;;;;7.38;6.35;;;;;;;11.28;100.00;102981.56;5233660;28;20036;-81
2023/01/28 13:46:35;;;;;;;7.85;7.05;;;;;;;12.12;100.00;102987.91;5235302;28;20080;-82
2023/01/28 13:49:14;;;;;;;7.68;6.85;;;;;;;10.94;100.00;102964.09;5227350;28;20042;-83
2023/01/28 13:51:58;;;;;;;7.07;6.45;;;;;;;10.43;100.00;102960.91;5233286;28;20042;-82
2023/01/28 13:54:34;;;;;;;8.23;6.65;;;;;;;9.93;100.00;102953.03;5230617;28;20061;-82
2023/01/28 13:57:33;;;;;;;7.60;6.13;;;;;;;9.66;100.00;102944.78;5234244;28;20074;-81
2023/01/28 14:00:25;;;;;;;6.72;5.95;;;;;;;9.08;100.00;102949.66;5231353;28;20030;-81
2023/01/28 14:03:23;;;;;;;7.30;6.60;;;;;;;9.24;100.00;102938.19;5236269;28;20150;-81
2023/01/28 14:06:23;;;;;;;7.28;6.57;;;;;;;9.52;100.00;102920.69;5230038;28;20422;-82
2023/01/28 14:09:03;;;;;;;6.88;6.18;;;;;;;8.74;100.00;102928.41;5232973;28;20070;-82
2023/01/28 14:11:52;;;;;;;7.45;6.25;;;;;;;9.17;100.00;102924.34;5226496;28;20149;-83
2023/01/28 14:14:46;;;;;;;7.60;6.00;;;;;;;8.36;100.00;102924.06;5210052;28;20038;-82
2023/01/28 14:17:20;;;;;;;7.55;6.03;;;;;;;8.99;100.00;102928.81;5218895;28;20041;-82
2023/01/28 14:19:54;;;;;;;6.95;6.28;;;;;;;9.24;100.00;102940.84;5231790;28;20045;-83
2023/01/28 14:22:26;;;;;;;7.15;6.45;;;;;;;9.15;100.00;102949.31;5231199;28;20104;-83
2023/01/28 14:25:00;;;;;;;6.90;6.20;;;;;;;9.27;100.00;102940.66;5212262;28;20037;-83
2023/01/28 14:27:41;;;;;;;7.45;6.32;;;;;;;11.18;100.00;102948.34;5225901;28;20034;-82
2023/01/28 14:30:31;;;;;;;6.55;5.93;;;;;;;12.03;100.00;102961.75;5212576;28;20089;-82
2023/01/28 14:33:02;;;;;;;7.47;6.10;;;;;;;10.72;100.00;102969.84;5232166;28;20566;-82
2023/01/28 14:35:38;;;;;;;7.55;6.75;;;;;;;9.94;100.00;102973.41;5209155;28;20034;-82
2023/01/28 14:38:16;;;;;;;8.23;6.53;;;;;;;8.80;100.00;102963.53;5207519;28;20098;-82
2023/01/28 14:40:51;;;;;;;6.93;6.00;;;;;;;7.58;100.00;102948.16;5208539;28;20242;-83
2023/01/28 14:43:26;;;;;;;7.07;6.38;;;;;;;7.12;100.00;102957.38;5232952;28;20026;-83
2023/01/28 14:46:28;;;;;;;7.05;6.35;;;;;;;6.99;100.00;102971.19;5213105;28;20551;-82
2023/01/28 14:49:25;;;;;;;6.80;5.97;;;;;;;6.43;100.00;102977.97;5232877;28;20061;-82
2023/01/28 14:52:35;;;;;;;8.90;6.35;;;;;;;6.16;100.00;102979.09;5239678;28;20049;-82
2023/01/28 14:55:25;;;;;;;7.60;6.43;;;;;;;5.69;100.00;102977.34;5224819;28;20034;-81
2023/01/28 14:58:02;;;;;;;8.02;7.22;;;;;;;5.27;100.00;102978.00;5225618;28;20048;-81
2023/01/28 15:00:35;;;;;;;7.65;6.82;;;;;;;4.95;100.00;102966.81;5228831;28;20285;-81
2023/01/28 15:03:27;;;;;;;7.95;7.10;;;;;;;4.93;100.00;102980.09;5225704;28;20438;-81
2023/01/28 15:06:03;;;;;;;7.45;6.25;;;;;;;4.77;100.00;102964.78;5241192;28;20030;-81
2023/01/28 15:08:34;;;;;;;8.30;7.40;;;;;;;4.58;100.00;102964.56;5224375;28;20044;-81
2023/01/28 15:11:16;;;;;;;8.43;6.82;;;;;;;4.62;100.00;102956.47;5238180;28;20037;-81
2023/01/28 15:13:53;;;;;;;7.97;6.65;;;;;;;4.43;100.00;102977.34;5201037;28;20503;-81
2023/01/28 15:16:29;;;;;;;8.07;7.25;;;;;;;4.10;100.00;102953.78;5185073;28;20117;-81
2023/01/28 15:19:01;;;;;;;7.95;6.75;;;;;;;3.97;100.00;102950.63;5219503;28;20147;-81
2023/01/28 15:21:34;;;;;;;8.05;7.25;;;;;;;3.72;100.00;102952.31;5204814;28;20034;-81
2023/01/28 15:24:12;;;;;;;6.75;6.05;;;;;;;3.84;100.00;102961.63;5220876;28;20721;-81
2023/01/28 15:26:46;;;;;;;8.32;6.70;;;;;;;3.71;100.00;102972.56;5232102;28;20034;-82
2023/01/28 15:29:25;;;;;;;8.13;7.28;;;;;;;3.63;100.00;102964.03;5205978;28;20386;-82
2023/01/28 15:31:57;;;;;;;8.40;7.20;;;;;;;3.37;100.00;102960.34;5211728;28;20053;-82
2023/01/28 15:34:30;;;;;;;10.30;7.65;;;;;;;3.46;100.00;102974.22;5234423;28;20037;-82
2023/01/28 15:37:01;;;;;;;8.50;7.15;;;;;;;4.15;100.00;102983.56;5221784;28;20387;-82
2023/01/28 15:39:34;;;;;;;8.90;7.43;;;;;;;5.01;100.00;102990.38;5233360;28;20025;-82
2023/01/28 15:42:07;;;;;;;8.23;7.07;;;;;;;5.66;100.00;103002.16;5248932;28;20026;-82
2023/01/28 15:44:43;;;;;;;8.50;7.28;;;;;;;5.85;100.00;103004.94;5229046;28;20037;-81
2023/01/28 15:47:23;;;;;;;8.23;7.00;;;;;;;5.73;100.00;103010.72;5240789;28;20029;-82
2023/01/28 15:49:58;;;;;;;7.22;6.47;;;;;;;5.31;100.00;103008.72;5239155;28;20487;-82
2023/01/28 15:52:36;;;;;;;8.23;7.15;;;;;;;4.52;100.00;103021.13;5224877;28;20036;-82
2023/01/28 15:55:30;;;;;;;10.55;7.68;;;;;;;3.94;100.00;103027.34;5227053;28;20092;-82
2023/01/28 15:58:11;;;;;;;8.57;7.40;;;;;;;3.28;100.00;103038.88;5239533;28;20117;-80
2023/01/28 16:00:47;;;;;;;11.60;9.00;;;;;;;2.65;100.00;103026.41;5239799;28;20113;-82
2023/01/28 16:03:20;;;;;;;14.88;11.20;;;;;;;2.05;100.00;103025.19;5232417;28;20026;-82
2023/01/28 16:06:02;;;;;;;11.32;9.25;;;;;;;1.81;100.00;103045.00;5245151;28;20181;-82
2023/01/28 16:08:46;;;;;;;10.77;8.98;;;;;;;1.59;100.00;103056.84;5242551;28;20073;-82
2023/01/28 16:11:25;;;;;;;11.40;8.35;;;;;;;1.19;100.00;103047.06;5226481;28;20046;-81
2023/01/28 16:13:57;;;;;;;11.25;8.07;;;;;;;0.79;100.00;103029.38;5235914;28;20064;-82
2023/01/28 16:16:33;;;;;;;11.25;8.57;;;;;;;0.61;100.00;103036.66;5236493;28;20041;-82
2023/01/28 16:19:06;;;;;;;12.57;8.05;;;;;;;0.51;100.00;103037.72;5216402;28;20394;-82
2023/01/28 16:21:44;;;;;;;10.68;7.95;;;;;;;0.35;100.00;103032.69;5237149;28;20427;-81
2023/01/28 16:24:24;;;;;;;10.27;7.80;;;;;;;0.37;100.00;103025.66;5219512;28;20026;-82
2023/01/28 16:27:03;;;;;;;13.52;8.23;;;;;;;0.29;100.00;103016.16;5219970;28;20062;-82
2023/01/28 16:29:35;;;;;;;12.55;9.13;;;;;;;0.18;100.00;103009.31;5238716;28;20428;-82
2023/01/28 16:32:27;;;;;;;17.17;11.23;;;;;;;0.14;100.00;102999.75;5235070;28;20045;-81
2023/01/28 16:35:00;;;;;;;12.30;9.13;;;;;;;0.11;100.00;103007.66;5219218;28;20030;-81
2023/01/28 16:37:32;;;;;;;13.95;9.70;;;;;;;0.08;100.00;103015.56;5220831;28;20037;-82
2023/01/28 16:40:04;;;;;;;13.73;9.98;;;;;;;-0.20;100.00;103034.28;5220199;28;20059;-82
2023/01/28 16:42:36;;;;;;;13.57;9.40;;;;;;;-0.50;100.00;103034.69;5235878;28;20045;-82
2023/01/28 16:45:16;;;;;;;14.43;9.80;;;;;;;-0.50;100.00;103035.53;5218949;28;20806;-82
2023/01/28 16:47:49;;;;;;;14.90;10.43;;;;;;;-0.49;100.00;103039.91;5216948;28;20479;-81
2023/01/28 16:50:21;;;;;;;18.58;11.57;;;;;;;-0.73;100.00;103032.31;5235917;28;20393;-82
2023/01/28 16:52:54;;;;;;;15.60;11.02;;;;;;;-0.78;100.00;103027.09;5235454;28;20113;-82
2023/01/28 16:55:26;;;;;;;15.80;11.00;;;;;;;-0.65;100.00;103030.44;5222373;28;20026;-81
2023/01/28 16:57:58;;;;;;;12.90;9.23;;;;;;;-0.64;100.00;103037.44;5236619;28;20462;-82
2023/01/28 17:00:32;;;;;;;14.60;11.02;;;;;;;-0.94;100.00;103041.25;5219324;28;20025;-81
2023/01/28 17:03:04;;;;;;;15.60;11.43;;;;;;;-0.81;100.00;103028.03;5219670;28;20025;-82
2023/01/28 17:05:36;;;;;;;15.95;10.38;;;;;;;-0.83;100.00;103032.38;5213422;28;20097;-81
2023/01/28 17:08:07;;;;;;;19.52;11.80;;;;;;;-0.92;100.00;103034.25;5237816;28;20508;-81
2023/01/28 17:10:40;;;;;;;16.30;11.10;;;;;;;-0.98;100.00;103038.66;5223558;28;20118;-81
2023/01/28 17:13:11;;;;;;;13.52;9.32;;;;;;;-1.08;100.00;103038.75;5237535;28;20076;-82
2023/01/28 17:15:44;;;;;;;14.95;10.18;;;;;;;-1.22;100.00;103029.25;5237488;28;20026;-81
2023/01/28 17:18:16;;;;;;;17.23;11.32;;;;;;;-1.21;100.00;103028.38;5236258;28;20054;-82
2023/01/28 17:20:47;;;;;;;15.82;11.40;;;;;;;-1.23;100.00;103024.03;5231118;28;20038;-81
2023/01/28 17:23:23;;;;;;;16.98;11.60;;;;;;;-1.24;100.00;103017.94;5233913;28;20037;-82
2023/01/28 17:25:54;;;;;;;16.60;11.10;;;;;;;-1.15;100.00;103033.56;5236067;28;20034;-82
2023/01/28 17:28:27;;;;;;;17.50;11.93;;;;;;;-1.33;100.00;103042.44;5219503;28;20033;-81
2023/01/28 17:30:59;;;;;;;20.42;12.48;;;;;;;-1.43;100.00;103060.84;5214521;28;20396;-81
2023/01/28 17:33:32;;;;;;;17.58;11.40;;;;;;;-1.55;100.00;103057.41;5235563;28;20025;-82
2023/01/28 17:36:04;;;;;;;16.30;11.18;;;;;;;-1.80;100.00;103043.63;5219805;28;20435;-81
2023/01/28 17:38:35;;;;;;;15.73;10.90;;;;;;;-1.88;100.00;103041.94;5217042;28;20041;-82
2023/01/28 17:41:10;;;;;;;19.02;12.48;;;;;;;-1.75;100.00;103036.63;5233258;28;20029;-82
2023/01/28 17:43:42;;;;;;;21.17;12.50;;;;;;;-1.76;100.00;103049.72;5234403;28;20583;-82
2023/01/28 17:46:15;;;;;;;19.25;12.85;;;;;;;-1.70;100.00;103044.44;5236643;28;20048;-82
2023/01/28 17:48:47;;;;;;;22.75;13.55;;;;;;;-1.84;100.00;103035.78;5217427;28;20410;-82
2023/01/28 17:51:19;;;;;;;21.80;14.43;;;;;;;-1.98;100.00;103039.38;5237498;28;20547;-82
2023/01/28 17:53:52;;;;;;;22.58;12.50;;;;;;;-2.03;100.00;103046.38;5237296;28;20450;-82
2023/01/28 17:56:26;;;;;;;19.83;12.38;;;;;;;-1.88;100.00;103026.22;5234038;28;20076;-82
2023/01/28 17:59:06;;;;;;;23.23;13.85;;;;;;;-1.78;100.00;103036.63;5240352;28;20390;-82
2023/01/28 18:01:38;;;;;;;19.65;13.20;;;;;;;-1.84;100.00;103047.16;5217964;28;20125;-82
2023/01/28 18:04:09;;;;;;;23.08;14.63;;;;;;;-1.94;100.00;103045.44;5220153;28;20121;-82